sensor_id;sensor_type;location;lat;lon;timestamp;P1;durP1;ratioP1;P2;durP2;ratioP2
18435;SDS011;9346;52.006;4.720;2024-01-06T00:01:03;11.83;;;4.73;;
18435;SDS011;9346;52.006;4.720;2024-01-06T00:03:31;10.73;;;6.47;;
18435;SDS011;9346;52.006;4.720;2024-01-06T00:05:57;7.40;;;4.13;;
18435;SDS011;9346;52.006;4.720;2024-01-06T00:08:25;9.57;;;4.57;;
18435;SDS011;9346;52.006;4.720;2024-01-06T00:10:51;7.83;;;5.10;;
18435;SDS011;9346;52.006;4.720;2024-01-06T00:13:18;9.33;;;5.23;;
18435;SDS011;9346;52.006;4.720;2024-01-06T00:15:45;8.83;;;5.30;;
18435;SDS011;9346;52.006;4.720;2024-01-06T00:18:13;9.03;;;5.43;;
18435;SDS011;9346;52.006;4.720;2024-01-06T00:20:40;6.97;;;4.23;;
18435;SDS011;9346;52.006;4.720;2024-01-06T00:23:06;8.50;;;4.43;;
18435;SDS011;9346;52.006;4.720;2024-01-06T00:25:33;10.03;;;4.90;;
18435;SDS011;9346;52.006;4.720;2024-01-06T00:28:00;6.23;;;3.90;;
18435;SDS011;9346;52.006;4.720;2024-01-06T00:30:27;10.00;;;4.70;;
18435;SDS011;9346;52.006;4.720;2024-01-06T00:32:54;7.63;;;4.33;;
18435;SDS011;9346;52.006;4.720;2024-01-06T00:35:22;9.13;;;4.07;;
18435;SDS011;9346;52.006;4.720;2024-01-06T00:37:49;6.47;;;3.90;;
18435;SDS011;9346;52.006;4.720;2024-01-06T00:40:16;6.33;;;4.20;;
18435;SDS011;9346;52.006;4.720;2024-01-06T00:42:44;5.67;;;3.90;;
18435;SDS011;9346;52.006;4.720;2024-01-06T00:45:12;5.97;;;3.53;;
18435;SDS011;9346;52.006;4.720;2024-01-06T00:47:39;6.83;;;3.23;;
18435;SDS011;9346;52.006;4.720;2024-01-06T00:50:06;6.53;;;3.47;;
18435;SDS011;9346;52.006;4.720;2024-01-06T00:52:35;6.60;;;3.80;;
18435;SDS011;9346;52.006;4.720;2024-01-06T00:55:01;8.57;;;3.90;;
18435;SDS011;9346;52.006;4.720;2024-01-06T00:57:28;7.10;;;3.50;;
18435;SDS011;9346;52.006;4.720;2024-01-06T00:59:58;5.90;;;3.70;;
18435;SDS011;9346;52.006;4.720;2024-01-06T01:02:25;10.00;;;4.23;;
18435;SDS011;9346;52.006;4.720;2024-01-06T01:04:52;6.90;;;3.43;;
18435;SDS011;9346;52.006;4.720;2024-01-06T01:07:18;8.13;;;4.00;;
18435;SDS011;9346;52.006;4.720;2024-01-06T01:09:47;10.30;;;3.20;;
18435;SDS011;9346;52.006;4.720;2024-01-06T01:12:14;6.30;;;3.57;;
18435;SDS011;9346;52.006;4.720;2024-01-06T01:14:40;6.90;;;3.23;;
18435;SDS011;9346;52.006;4.720;2024-01-06T01:17:07;6.87;;;3.23;;
18435;SDS011;9346;52.006;4.720;2024-01-06T01:19:34;6.60;;;3.63;;
18435;SDS011;9346;52.006;4.720;2024-01-06T01:22:00;8.03;;;3.87;;
18435;SDS011;9346;52.006;4.720;2024-01-06T01:24:28;7.97;;;3.70;;
18435;SDS011;9346;52.006;4.720;2024-01-06T01:26:59;8.07;;;3.87;;
18435;SDS011;9346;52.006;4.720;2024-01-06T01:29:26;9.73;;;4.03;;
18435;SDS011;9346;52.006;4.720;2024-01-06T01:31:53;4.47;;;3.37;;
18435;SDS011;9346;52.006;4.720;2024-01-06T01:34:20;4.63;;;3.43;;
18435;SDS011;9346;52.006;4.720;2024-01-06T01:36:46;8.10;;;4.77;;
18435;SDS011;9346;52.006;4.720;2024-01-06T01:39:13;10.73;;;4.07;;
18435;SDS011;9346;52.006;4.720;2024-01-06T01:41:40;8.70;;;4.37;;
18435;SDS011;9346;52.006;4.720;2024-01-06T01:44:08;6.03;;;3.40;;
18435;SDS011;9346;52.006;4.720;2024-01-06T01:46:35;7.67;;;4.00;;
18435;SDS011;9346;52.006;4.720;2024-01-06T01:49:03;5.87;;;3.57;;
18435;SDS011;9346;52.006;4.720;2024-01-06T01:51:31;8.83;;;4.13;;
18435;SDS011;9346;52.006;4.720;2024-01-06T01:54:01;8.33;;;4.33;;
18435;SDS011;9346;52.006;4.720;2024-01-06T01:56:28;9.73;;;4.20;;
18435;SDS011;9346;52.006;4.720;2024-01-06T01:58:59;6.47;;;3.37;;
18435;SDS011;9346;52.006;4.720;2024-01-06T02:01:29;12.07;;;4.47;;
18435;SDS011;9346;52.006;4.720;2024-01-06T02:03:56;7.20;;;4.10;;
18435;SDS011;9346;52.006;4.720;2024-01-06T02:06:24;5.13;;;3.33;;
18435;SDS011;9346;52.006;4.720;2024-01-06T02:08:51;6.67;;;3.30;;
18435;SDS011;9346;52.006;4.720;2024-01-06T02:11:18;5.40;;;2.93;;
18435;SDS011;9346;52.006;4.720;2024-01-06T02:13:44;6.60;;;2.73;;
18435;SDS011;9346;52.006;4.720;2024-01-06T02:16:14;4.43;;;2.90;;
18435;SDS011;9346;52.006;4.720;2024-01-06T02:18:43;4.10;;;2.57;;
18435;SDS011;9346;52.006;4.720;2024-01-06T02:21:10;5.73;;;2.70;;
18435;SDS011;9346;52.006;4.720;2024-01-06T02:23:38;5.03;;;3.13;;
18435;SDS011;9346;52.006;4.720;2024-01-06T02:26:05;8.57;;;3.13;;
18435;SDS011;9346;52.006;4.720;2024-01-06T02:28:32;4.77;;;2.17;;
18435;SDS011;9346;52.006;4.720;2024-01-06T02:30:59;9.10;;;3.33;;
18435;SDS011;9346;52.006;4.720;2024-01-06T02:33:25;5.70;;;3.47;;
18435;SDS011;9346;52.006;4.720;2024-01-06T02:35:52;4.70;;;2.87;;
18435;SDS011;9346;52.006;4.720;2024-01-06T02:38:18;4.97;;;3.33;;
18435;SDS011;9346;52.006;4.720;2024-01-06T02:40:47;6.97;;;2.43;;
18435;SDS011;9346;52.006;4.720;2024-01-06T02:43:14;7.67;;;2.80;;
18435;SDS011;9346;52.006;4.720;2024-01-06T02:45:40;6.47;;;2.77;;
18435;SDS011;9346;52.006;4.720;2024-01-06T02:48:07;5.73;;;3.20;;
18435;SDS011;9346;52.006;4.720;2024-01-06T02:50:36;4.27;;;3.10;;
18435;SDS011;9346;52.006;4.720;2024-01-06T02:53:03;5.53;;;3.40;;
18435;SDS011;9346;52.006;4.720;2024-01-06T02:55:30;5.43;;;3.07;;
18435;SDS011;9346;52.006;4.720;2024-01-06T02:57:58;5.50;;;3.57;;
18435;SDS011;9346;52.006;4.720;2024-01-06T03:00:26;5.60;;;3.53;;
18435;SDS011;9346;52.006;4.720;2024-01-06T03:02:53;5.97;;;3.60;;
18435;SDS011;9346;52.006;4.720;2024-01-06T03:05:19;5.50;;;3.60;;
18435;SDS011;9346;52.006;4.720;2024-01-06T03:07:46;6.10;;;4.23;;
18435;SDS011;9346;52.006;4.720;2024-01-06T03:10:13;6.33;;;4.03;;
18435;SDS011;9346;52.006;4.720;2024-01-06T03:12:39;8.47;;;4.90;;
18435;SDS011;9346;52.006;4.720;2024-01-06T03:15:08;9.40;;;5.17;;
18435;SDS011;9346;52.006;4.720;2024-01-06T03:17:36;8.90;;;4.73;;
18435;SDS011;9346;52.006;4.720;2024-01-06T03:20:03;10.87;;;5.30;;
18435;SDS011;9346;52.006;4.720;2024-01-06T03:22:30;9.57;;;4.83;;
18435;SDS011;9346;52.006;4.720;2024-01-06T03:24:57;11.53;;;5.37;;
18435;SDS011;9346;52.006;4.720;2024-01-06T03:27:24;14.20;;;5.53;;
18435;SDS011;9346;52.006;4.720;2024-01-06T03:29:51;14.63;;;5.83;;
18435;SDS011;9346;52.006;4.720;2024-01-06T03:32:19;13.03;;;4.93;;
18435;SDS011;9346;52.006;4.720;2024-01-06T03:34:46;13.63;;;5.67;;
18435;SDS011;9346;52.006;4.720;2024-01-06T03:37:12;10.00;;;5.47;;
18435;SDS011;9346;52.006;4.720;2024-01-06T03:39:39;6.77;;;4.23;;
18435;SDS011;9346;52.006;4.720;2024-01-06T03:42:06;10.37;;;5.40;;
18435;SDS011;9346;52.006;4.720;2024-01-06T03:44:32;8.50;;;4.43;;
18435;SDS011;9346;52.006;4.720;2024-01-06T03:47:00;9.13;;;5.17;;
18435;SDS011;9346;52.006;4.720;2024-01-06T03:49:28;9.40;;;5.17;;
18435;SDS011;9346;52.006;4.720;2024-01-06T03:51:55;7.50;;;4.27;;
18435;SDS011;9346;52.006;4.720;2024-01-06T03:54:22;12.50;;;4.87;;
18435;SDS011;9346;52.006;4.720;2024-01-06T03:56:49;10.13;;;4.20;;
18435;SDS011;9346;52.006;4.720;2024-01-06T03:59:15;9.03;;;4.83;;
18435;SDS011;9346;52.006;4.720;2024-01-06T04:01:42;9.37;;;5.17;;
18435;SDS011;9346;52.006;4.720;2024-01-06T04:04:09;14.93;;;5.10;;
18435;SDS011;9346;52.006;4.720;2024-01-06T04:06:37;10.63;;;4.97;;
18435;SDS011;9346;52.006;4.720;2024-01-06T04:09:04;9.37;;;4.77;;
18435;SDS011;9346;52.006;4.720;2024-01-06T04:11:31;8.87;;;4.17;;
18435;SDS011;9346;52.006;4.720;2024-01-06T04:13:57;6.47;;;3.83;;
18435;SDS011;9346;52.006;4.720;2024-01-06T04:16:25;6.90;;;3.83;;
18435;SDS011;9346;52.006;4.720;2024-01-06T04:18:52;6.43;;;4.03;;
18435;SDS011;9346;52.006;4.720;2024-01-06T04:21:19;8.80;;;3.60;;
18435;SDS011;9346;52.006;4.720;2024-01-06T04:23:47;6.67;;;2.93;;
18435;SDS011;9346;52.006;4.720;2024-01-06T04:26:14;9.37;;;4.37;;
18435;SDS011;9346;52.006;4.720;2024-01-06T04:28:40;5.30;;;3.07;;
18435;SDS011;9346;52.006;4.720;2024-01-06T04:31:07;6.93;;;3.00;;
18435;SDS011;9346;52.006;4.720;2024-01-06T04:33:34;6.60;;;3.13;;
18435;SDS011;9346;52.006;4.720;2024-01-06T04:36:02;5.53;;;3.13;;
18435;SDS011;9346;52.006;4.720;2024-01-06T04:38:29;5.50;;;2.90;;
18435;SDS011;9346;52.006;4.720;2024-01-06T04:40:57;3.67;;;2.80;;
18435;SDS011;9346;52.006;4.720;2024-01-06T04:43:24;4.40;;;3.00;;
18435;SDS011;9346;52.006;4.720;2024-01-06T04:45:51;5.03;;;2.60;;
18435;SDS011;9346;52.006;4.720;2024-01-06T04:48:17;4.03;;;2.63;;
18435;SDS011;9346;52.006;4.720;2024-01-06T04:50:44;7.67;;;3.30;;
18435;SDS011;9346;52.006;4.720;2024-01-06T04:53:11;4.43;;;2.30;;
18435;SDS011;9346;52.006;4.720;2024-01-06T04:55:38;4.93;;;2.43;;
18435;SDS011;9346;52.006;4.720;2024-01-06T04:58:06;5.97;;;2.70;;
18435;SDS011;9346;52.006;4.720;2024-01-06T05:00:33;5.30;;;2.63;;
18435;SDS011;9346;52.006;4.720;2024-01-06T05:03:01;7.70;;;3.50;;
18435;SDS011;9346;52.006;4.720;2024-01-06T05:05:28;5.10;;;2.83;;
18435;SDS011;9346;52.006;4.720;2024-01-06T05:07:54;10.80;;;4.73;;
18435;SDS011;9346;52.006;4.720;2024-01-06T05:10:21;11.30;;;3.60;;
18435;SDS011;9346;52.006;4.720;2024-01-06T05:12:48;8.93;;;4.13;;
18435;SDS011;9346;52.006;4.720;2024-01-06T05:15:16;5.73;;;3.27;;
18435;SDS011;9346;52.006;4.720;2024-01-06T05:17:43;5.23;;;3.47;;
18435;SDS011;9346;52.006;4.720;2024-01-06T05:20:09;6.90;;;3.40;;
18435;SDS011;9346;52.006;4.720;2024-01-06T05:22:36;9.20;;;3.47;;
18435;SDS011;9346;52.006;4.720;2024-01-06T05:25:03;13.57;;;4.23;;
18435;SDS011;9346;52.006;4.720;2024-01-06T05:27:31;6.57;;;3.73;;
18435;SDS011;9346;52.006;4.720;2024-01-06T05:29:57;9.40;;;3.80;;
18435;SDS011;9346;52.006;4.720;2024-01-06T05:32:26;8.70;;;3.93;;
18435;SDS011;9346;52.006;4.720;2024-01-06T05:34:52;8.80;;;4.10;;
18435;SDS011;9346;52.006;4.720;2024-01-06T05:37:19;7.77;;;3.17;;
18435;SDS011;9346;52.006;4.720;2024-01-06T05:39:46;6.60;;;3.60;;
18435;SDS011;9346;52.006;4.720;2024-01-06T05:42:13;6.70;;;3.60;;
18435;SDS011;9346;52.006;4.720;2024-01-06T05:44:40;6.67;;;3.80;;
18435;SDS011;9346;52.006;4.720;2024-01-06T05:47:07;5.10;;;3.27;;
18435;SDS011;9346;52.006;4.720;2024-01-06T05:49:36;8.53;;;4.40;;
18435;SDS011;9346;52.006;4.720;2024-01-06T05:52:02;5.37;;;3.37;;
18435;SDS011;9346;52.006;4.720;2024-01-06T05:54:29;7.77;;;3.63;;
18435;SDS011;9346;52.006;4.720;2024-01-06T05:56:56;6.60;;;3.77;;
18435;SDS011;9346;52.006;4.720;2024-01-06T05:59:23;8.00;;;3.83;;
18435;SDS011;9346;52.006;4.720;2024-01-06T06:01:50;7.93;;;3.40;;
18435;SDS011;9346;52.006;4.720;2024-01-06T06:04:17;6.00;;;3.37;;
18435;SDS011;9346;52.006;4.720;2024-01-06T06:06:46;6.23;;;3.10;;
18435;SDS011;9346;52.006;4.720;2024-01-06T06:09:13;13.13;;;3.33;;
18435;SDS011;9346;52.006;4.720;2024-01-06T06:11:40;4.77;;;2.43;;
18435;SDS011;9346;52.006;4.720;2024-01-06T06:14:08;5.27;;;3.07;;
18435;SDS011;9346;52.006;4.720;2024-01-06T06:16:36;3.73;;;3.00;;
18435;SDS011;9346;52.006;4.720;2024-01-06T06:19:02;6.40;;;3.10;;
18435;SDS011;9346;52.006;4.720;2024-01-06T06:21:29;4.40;;;2.80;;
18435;SDS011;9346;52.006;4.720;2024-01-06T06:24:01;6.57;;;3.17;;
18435;SDS011;9346;52.006;4.720;2024-01-06T06:26:28;5.30;;;3.30;;
18435;SDS011;9346;52.006;4.720;2024-01-06T06:28:55;5.13;;;3.63;;
18435;SDS011;9346;52.006;4.720;2024-01-06T06:31:24;6.97;;;3.00;;
18435;SDS011;9346;52.006;4.720;2024-01-06T06:33:51;4.73;;;3.07;;
18435;SDS011;9346;52.006;4.720;2024-01-06T06:36:18;4.97;;;3.10;;
18435;SDS011;9346;52.006;4.720;2024-01-06T06:38:44;7.37;;;3.37;;
18435;SDS011;9346;52.006;4.720;2024-01-06T06:41:13;7.57;;;3.50;;
18435;SDS011;9346;52.006;4.720;2024-01-06T06:43:41;8.43;;;3.47;;
18435;SDS011;9346;52.006;4.720;2024-01-06T06:46:07;11.90;;;3.97;;
18435;SDS011;9346;52.006;4.720;2024-01-06T06:48:35;6.80;;;3.37;;
18435;SDS011;9346;52.006;4.720;2024-01-06T06:51:02;6.67;;;3.87;;
18435;SDS011;9346;52.006;4.720;2024-01-06T06:53:29;7.23;;;3.47;;
18435;SDS011;9346;52.006;4.720;2024-01-06T06:55:56;6.70;;;3.80;;
18435;SDS011;9346;52.006;4.720;2024-01-06T06:58:24;5.70;;;3.87;;
18435;SDS011;9346;52.006;4.720;2024-01-06T07:00:51;11.03;;;3.97;;
18435;SDS011;9346;52.006;4.720;2024-01-06T07:03:19;8.27;;;3.87;;
18435;SDS011;9346;52.006;4.720;2024-01-06T07:05:46;9.60;;;4.03;;
18435;SDS011;9346;52.006;4.720;2024-01-06T07:08:13;8.77;;;3.63;;
18435;SDS011;9346;52.006;4.720;2024-01-06T07:10:40;11.83;;;5.07;;
18435;SDS011;9346;52.006;4.720;2024-01-06T07:13:07;5.83;;;4.13;;
18435;SDS011;9346;52.006;4.720;2024-01-06T07:15:35;9.23;;;4.77;;
18435;SDS011;9346;52.006;4.720;2024-01-06T07:18:02;8.83;;;4.40;;
18435;SDS011;9346;52.006;4.720;2024-01-06T07:20:29;7.40;;;4.47;;
18435;SDS011;9346;52.006;4.720;2024-01-06T07:22:56;8.23;;;4.23;;
18435;SDS011;9346;52.006;4.720;2024-01-06T07:25:23;9.23;;;4.63;;
18435;SDS011;9346;52.006;4.720;2024-01-06T07:27:49;7.43;;;3.73;;
18435;SDS011;9346;52.006;4.720;2024-01-06T07:30:16;5.80;;;3.13;;
18435;SDS011;9346;52.006;4.720;2024-01-06T07:32:45;8.10;;;3.77;;
18435;SDS011;9346;52.006;4.720;2024-01-06T07:35:12;8.43;;;4.47;;
18435;SDS011;9346;52.006;4.720;2024-01-06T07:37:39;7.97;;;4.47;;
18435;SDS011;9346;52.006;4.720;2024-01-06T07:40:06;7.43;;;4.27;;
18435;SDS011;9346;52.006;4.720;2024-01-06T07:42:33;6.70;;;3.10;;
18435;SDS011;9346;52.006;4.720;2024-01-06T07:45:00;6.73;;;3.87;;
18435;SDS011;9346;52.006;4.720;2024-01-06T07:47:27;9.80;;;4.10;;
18435;SDS011;9346;52.006;4.720;2024-01-06T07:49:55;8.00;;;3.80;;
18435;SDS011;9346;52.006;4.720;2024-01-06T07:52:22;6.93;;;3.93;;
18435;SDS011;9346;52.006;4.720;2024-01-06T07:54:49;6.43;;;3.63;;
18435;SDS011;9346;52.006;4.720;2024-01-06T07:57:15;6.30;;;3.53;;
18435;SDS011;9346;52.006;4.720;2024-01-06T07:59:42;6.00;;;3.33;;
18435;SDS011;9346;52.006;4.720;2024-01-06T08:02:09;10.10;;;3.67;;
18435;SDS011;9346;52.006;4.720;2024-01-06T08:04:35;6.97;;;3.83;;
18435;SDS011;9346;52.006;4.720;2024-01-06T08:07:04;5.83;;;3.43;;
18435;SDS011;9346;52.006;4.720;2024-01-06T08:09:31;5.33;;;3.50;;
18435;SDS011;9346;52.006;4.720;2024-01-06T08:11:58;5.60;;;3.43;;
18435;SDS011;9346;52.006;4.720;2024-01-06T08:14:24;7.83;;;4.20;;
18435;SDS011;9346;52.006;4.720;2024-01-06T08:16:51;6.17;;;3.30;;
18435;SDS011;9346;52.006;4.720;2024-01-06T08:19:18;5.97;;;3.50;;
18435;SDS011;9346;52.006;4.720;2024-01-06T08:21:45;9.50;;;4.67;;
18435;SDS011;9346;52.006;4.720;2024-01-06T08:24:14;13.00;;;3.50;;
18435;SDS011;9346;52.006;4.720;2024-01-06T08:26:40;7.30;;;4.13;;
18435;SDS011;9346;52.006;4.720;2024-01-06T08:29:07;5.23;;;3.90;;
18435;SDS011;9346;52.006;4.720;2024-01-06T08:31:34;7.83;;;4.53;;
18435;SDS011;9346;52.006;4.720;2024-01-06T08:34:00;7.67;;;4.23;;
18435;SDS011;9346;52.006;4.720;2024-01-06T08:36:27;6.50;;;3.67;;
18435;SDS011;9346;52.006;4.720;2024-01-06T08:38:54;10.23;;;3.73;;
18435;SDS011;9346;52.006;4.720;2024-01-06T08:41:22;7.73;;;3.93;;
18435;SDS011;9346;52.006;4.720;2024-01-06T08:43:49;10.70;;;3.90;;
18435;SDS011;9346;52.006;4.720;2024-01-06T08:46:19;9.87;;;4.03;;
18435;SDS011;9346;52.006;4.720;2024-01-06T08:48:55;13.37;;;4.80;;
18435;SDS011;9346;52.006;4.720;2024-01-06T08:51:22;7.80;;;4.47;;
18435;SDS011;9346;52.006;4.720;2024-01-06T08:53:49;9.50;;;4.40;;
18435;SDS011;9346;52.006;4.720;2024-01-06T08:56:16;5.67;;;3.90;;
18435;SDS011;9346;52.006;4.720;2024-01-06T08:58:44;17.20;;;4.73;;
18435;SDS011;9346;52.006;4.720;2024-01-06T09:01:11;5.57;;;3.77;;
18435;SDS011;9346;52.006;4.720;2024-01-06T09:03:39;8.60;;;4.30;;
18435;SDS011;9346;52.006;4.720;2024-01-06T09:06:06;7.83;;;4.53;;
18435;SDS011;9346;52.006;4.720;2024-01-06T09:08:32;7.33;;;4.43;;
18435;SDS011;9346;52.006;4.720;2024-01-06T09:10:59;7.33;;;3.63;;
18435;SDS011;9346;52.006;4.720;2024-01-06T09:13:28;8.30;;;4.57;;
18435;SDS011;9346;52.006;4.720;2024-01-06T09:15:57;13.53;;;4.73;;
18435;SDS011;9346;52.006;4.720;2024-01-06T09:18:23;7.07;;;4.67;;
18435;SDS011;9346;52.006;4.720;2024-01-06T09:20:51;8.37;;;4.50;;
18435;SDS011;9346;52.006;4.720;2024-01-06T09:23:18;8.07;;;4.33;;
18435;SDS011;9346;52.006;4.720;2024-01-06T09:25:46;7.40;;;4.30;;
18435;SDS011;9346;52.006;4.720;2024-01-06T09:28:14;7.60;;;3.93;;
18435;SDS011;9346;52.006;4.720;2024-01-06T09:30:41;6.70;;;4.27;;
18435;SDS011;9346;52.006;4.720;2024-01-06T09:33:11;6.60;;;3.87;;
18435;SDS011;9346;52.006;4.720;2024-01-06T09:35:40;7.53;;;4.87;;
18435;SDS011;9346;52.006;4.720;2024-01-06T09:38:07;12.80;;;3.70;;
18435;SDS011;9346;52.006;4.720;2024-01-06T09:40:41;8.37;;;4.83;;
18435;SDS011;9346;52.006;4.720;2024-01-06T09:43:09;6.53;;;3.90;;
18435;SDS011;9346;52.006;4.720;2024-01-06T09:45:38;11.30;;;4.07;;
18435;SDS011;9346;52.006;4.720;2024-01-06T09:48:08;6.63;;;4.13;;
18435;SDS011;9346;52.006;4.720;2024-01-06T09:50:43;7.37;;;4.27;;
18435;SDS011;9346;52.006;4.720;2024-01-06T09:53:10;7.37;;;4.90;;
18435;SDS011;9346;52.006;4.720;2024-01-06T09:55:39;10.63;;;4.50;;
18435;SDS011;9346;52.006;4.720;2024-01-06T09:58:06;6.50;;;3.30;;
18435;SDS011;9346;52.006;4.720;2024-01-06T10:00:35;10.67;;;4.03;;
18435;SDS011;9346;52.006;4.720;2024-01-06T10:03:02;7.67;;;4.27;;
18435;SDS011;9346;52.006;4.720;2024-01-06T10:05:31;9.17;;;3.87;;
18435;SDS011;9346;52.006;4.720;2024-01-06T10:07:58;6.20;;;4.23;;
18435;SDS011;9346;52.006;4.720;2024-01-06T10:10:25;12.67;;;4.93;;
18435;SDS011;9346;52.006;4.720;2024-01-06T10:12:55;5.33;;;3.27;;
18435;SDS011;9346;52.006;4.720;2024-01-06T10:15:22;6.07;;;3.87;;
18435;SDS011;9346;52.006;4.720;2024-01-06T10:17:49;7.50;;;4.17;;
18435;SDS011;9346;52.006;4.720;2024-01-06T10:20:16;5.20;;;3.63;;
18435;SDS011;9346;52.006;4.720;2024-01-06T10:22:46;5.70;;;4.03;;
18435;SDS011;9346;52.006;4.720;2024-01-06T10:25:13;5.23;;;3.60;;
18435;SDS011;9346;52.006;4.720;2024-01-06T10:27:40;5.70;;;3.27;;
18435;SDS011;9346;52.006;4.720;2024-01-06T10:30:08;3.77;;;2.60;;
18435;SDS011;9346;52.006;4.720;2024-01-06T10:32:36;4.90;;;3.13;;
18435;SDS011;9346;52.006;4.720;2024-01-06T10:35:03;9.93;;;4.00;;
18435;SDS011;9346;52.006;4.720;2024-01-06T10:37:32;5.57;;;3.70;;
18435;SDS011;9346;52.006;4.720;2024-01-06T10:40:08;4.37;;;3.00;;
18435;SDS011;9346;52.006;4.720;2024-01-06T10:42:35;13.07;;;3.43;;
18435;SDS011;9346;52.006;4.720;2024-01-06T10:45:04;5.50;;;3.37;;
18435;SDS011;9346;52.006;4.720;2024-01-06T10:47:34;7.50;;;4.00;;
18435;SDS011;9346;52.006;4.720;2024-01-06T10:50:04;7.13;;;3.50;;
18435;SDS011;9346;52.006;4.720;2024-01-06T10:52:33;13.87;;;4.03;;
18435;SDS011;9346;52.006;4.720;2024-01-06T10:55:01;7.40;;;3.60;;
18435;SDS011;9346;52.006;4.720;2024-01-06T10:57:30;5.60;;;3.40;;
18435;SDS011;9346;52.006;4.720;2024-01-06T10:59:57;4.63;;;3.10;;
18435;SDS011;9346;52.006;4.720;2024-01-06T11:02:25;7.97;;;3.93;;
18435;SDS011;9346;52.006;4.720;2024-01-06T11:04:53;5.93;;;3.00;;
18435;SDS011;9346;52.006;4.720;2024-01-06T11:07:21;7.37;;;3.20;;
18435;SDS011;9346;52.006;4.720;2024-01-06T11:09:50;6.80;;;4.33;;
18435;SDS011;9346;52.006;4.720;2024-01-06T11:12:23;6.40;;;4.00;;
18435;SDS011;9346;52.006;4.720;2024-01-06T11:14:54;7.20;;;3.73;;
18435;SDS011;9346;52.006;4.720;2024-01-06T11:20:18;8.97;;;3.90;;
18435;SDS011;9346;52.006;4.720;2024-01-06T11:22:45;6.27;;;3.83;;
18435;SDS011;9346;52.006;4.720;2024-01-06T11:25:13;6.87;;;3.47;;
18435;SDS011;9346;52.006;4.720;2024-01-06T11:27:42;6.37;;;3.13;;
18435;SDS011;9346;52.006;4.720;2024-01-06T11:30:18;5.33;;;3.63;;
18435;SDS011;9346;52.006;4.720;2024-01-06T11:32:46;3.80;;;2.97;;
18435;SDS011;9346;52.006;4.720;2024-01-06T11:35:13;6.07;;;3.17;;
18435;SDS011;9346;52.006;4.720;2024-01-06T11:40:32;4.77;;;2.80;;
18435;SDS011;9346;52.006;4.720;2024-01-06T11:43:01;5.50;;;3.23;;
18435;SDS011;9346;52.006;4.720;2024-01-06T11:48:16;4.07;;;2.77;;
18435;SDS011;9346;52.006;4.720;2024-01-06T11:50:42;7.00;;;3.30;;
18435;SDS011;9346;52.006;4.720;2024-01-06T11:53:11;5.87;;;3.47;;
18435;SDS011;9346;52.006;4.720;2024-01-06T11:55:38;4.83;;;3.30;;
18435;SDS011;9346;52.006;4.720;2024-01-06T11:58:05;7.40;;;2.97;;
18435;SDS011;9346;52.006;4.720;2024-01-06T12:00:32;3.83;;;2.40;;
18435;SDS011;9346;52.006;4.720;2024-01-06T12:03:02;9.07;;;3.37;;
18435;SDS011;9346;52.006;4.720;2024-01-06T12:05:29;5.97;;;3.27;;
18435;SDS011;9346;52.006;4.720;2024-01-06T12:07:56;4.23;;;3.23;;
18435;SDS011;9346;52.006;4.720;2024-01-06T12:10:24;4.27;;;3.00;;
18435;SDS011;9346;52.006;4.720;2024-01-06T12:12:55;6.63;;;3.70;;
18435;SDS011;9346;52.006;4.720;2024-01-06T12:15:24;7.43;;;3.27;;
18435;SDS011;9346;52.006;4.720;2024-01-06T12:17:51;3.60;;;2.73;;
18435;SDS011;9346;52.006;4.720;2024-01-06T12:20:22;10.67;;;3.70;;
18435;SDS011;9346;52.006;4.720;2024-01-06T12:22:50;5.80;;;3.53;;
18435;SDS011;9346;52.006;4.720;2024-01-06T12:25:18;5.70;;;2.93;;
18435;SDS011;9346;52.006;4.720;2024-01-06T12:27:46;5.63;;;2.80;;
18435;SDS011;9346;52.006;4.720;2024-01-06T12:30:14;5.57;;;3.40;;
18435;SDS011;9346;52.006;4.720;2024-01-06T12:32:44;7.97;;;3.63;;
18435;SDS011;9346;52.006;4.720;2024-01-06T12:35:15;4.53;;;3.23;;
18435;SDS011;9346;52.006;4.720;2024-01-06T12:37:44;5.53;;;3.30;;
18435;SDS011;9346;52.006;4.720;2024-01-06T12:40:12;5.13;;;3.70;;
18435;SDS011;9346;52.006;4.720;2024-01-06T12:42:39;7.53;;;3.33;;
18435;SDS011;9346;52.006;4.720;2024-01-06T12:45:07;6.03;;;3.40;;
18435;SDS011;9346;52.006;4.720;2024-01-06T12:47:40;6.03;;;3.83;;
18435;SDS011;9346;52.006;4.720;2024-01-06T12:50:07;5.53;;;2.90;;
18435;SDS011;9346;52.006;4.720;2024-01-06T12:52:35;11.97;;;3.83;;
18435;SDS011;9346;52.006;4.720;2024-01-06T12:55:05;7.97;;;3.27;;
18435;SDS011;9346;52.006;4.720;2024-01-06T12:57:33;5.77;;;3.20;;
18435;SDS011;9346;52.006;4.720;2024-01-06T13:00:00;6.33;;;2.90;;
18435;SDS011;9346;52.006;4.720;2024-01-06T13:02:26;4.07;;;2.93;;
18435;SDS011;9346;52.006;4.720;2024-01-06T13:04:53;9.17;;;3.07;;
18435;SDS011;9346;52.006;4.720;2024-01-06T13:07:20;6.87;;;3.10;;
18435;SDS011;9346;52.006;4.720;2024-01-06T13:09:48;3.23;;;2.50;;
18435;SDS011;9346;52.006;4.720;2024-01-06T13:12:16;4.20;;;2.90;;
18435;SDS011;9346;52.006;4.720;2024-01-06T13:14:43;6.03;;;2.43;;
18435;SDS011;9346;52.006;4.720;2024-01-06T13:17:12;4.27;;;2.67;;
18435;SDS011;9346;52.006;4.720;2024-01-06T13:19:39;8.23;;;3.17;;
18435;SDS011;9346;52.006;4.720;2024-01-06T13:22:05;4.33;;;2.40;;
18435;SDS011;9346;52.006;4.720;2024-01-06T13:24:32;5.77;;;2.80;;
18435;SDS011;9346;52.006;4.720;2024-01-06T13:26:59;5.03;;;3.13;;
18435;SDS011;9346;52.006;4.720;2024-01-06T13:29:29;9.40;;;2.80;;
18435;SDS011;9346;52.006;4.720;2024-01-06T13:31:56;5.07;;;2.40;;
18435;SDS011;9346;52.006;4.720;2024-01-06T13:34:24;7.70;;;2.13;;
18435;SDS011;9346;52.006;4.720;2024-01-06T13:36:52;4.43;;;2.50;;
18435;SDS011;9346;52.006;4.720;2024-01-06T13:39:19;2.70;;;1.97;;
18435;SDS011;9346;52.006;4.720;2024-01-06T13:41:46;2.87;;;2.27;;
18435;SDS011;9346;52.006;4.720;2024-01-06T13:44:13;2.90;;;1.60;;
18435;SDS011;9346;52.006;4.720;2024-01-06T13:46:42;3.80;;;2.27;;
18435;SDS011;9346;52.006;4.720;2024-01-06T13:49:09;3.13;;;1.63;;
18435;SDS011;9346;52.006;4.720;2024-01-06T13:51:36;4.23;;;2.17;;
18435;SDS011;9346;52.006;4.720;2024-01-06T13:54:03;5.47;;;2.33;;
18435;SDS011;9346;52.006;4.720;2024-01-06T13:56:30;6.23;;;2.43;;
18435;SDS011;9346;52.006;4.720;2024-01-06T13:58:57;3.30;;;2.00;;
18435;SDS011;9346;52.006;4.720;2024-01-06T14:01:24;3.30;;;2.00;;
18435;SDS011;9346;52.006;4.720;2024-01-06T14:03:52;3.93;;;2.37;;
18435;SDS011;9346;52.006;4.720;2024-01-06T14:06:22;4.60;;;2.30;;
18435;SDS011;9346;52.006;4.720;2024-01-06T14:08:50;5.40;;;2.77;;
18435;SDS011;9346;52.006;4.720;2024-01-06T14:11:17;4.13;;;2.50;;
18435;SDS011;9346;52.006;4.720;2024-01-06T14:13:45;5.50;;;2.50;;
18435;SDS011;9346;52.006;4.720;2024-01-06T14:16:14;7.53;;;3.17;;
18435;SDS011;9346;52.006;4.720;2024-01-06T14:18:41;3.73;;;2.13;;
18435;SDS011;9346;52.006;4.720;2024-01-06T14:21:10;5.40;;;2.97;;
18435;SDS011;9346;52.006;4.720;2024-01-06T14:23:39;4.90;;;3.07;;
18435;SDS011;9346;52.006;4.720;2024-01-06T14:26:06;5.43;;;2.77;;
18435;SDS011;9346;52.006;4.720;2024-01-06T14:28:32;3.50;;;2.23;;
18435;SDS011;9346;52.006;4.720;2024-01-06T14:30:59;5.20;;;2.80;;
18435;SDS011;9346;52.006;4.720;2024-01-06T14:33:27;8.10;;;3.40;;
18435;SDS011;9346;52.006;4.720;2024-01-06T14:35:55;3.33;;;2.40;;
18435;SDS011;9346;52.006;4.720;2024-01-06T14:38:23;5.10;;;2.87;;
18435;SDS011;9346;52.006;4.720;2024-01-06T14:40:50;4.67;;;2.50;;
18435;SDS011;9346;52.006;4.720;2024-01-06T14:43:16;8.40;;;3.30;;
18435;SDS011;9346;52.006;4.720;2024-01-06T14:45:43;4.23;;;2.57;;
18435;SDS011;9346;52.006;4.720;2024-01-06T14:48:11;4.27;;;2.80;;
18435;SDS011;9346;52.006;4.720;2024-01-06T14:50:38;7.07;;;3.57;;
18435;SDS011;9346;52.006;4.720;2024-01-06T14:53:05;4.00;;;2.50;;
18435;SDS011;9346;52.006;4.720;2024-01-06T14:55:37;4.73;;;3.20;;
18435;SDS011;9346;52.006;4.720;2024-01-06T14:58:04;5.40;;;2.97;;
18435;SDS011;9346;52.006;4.720;2024-01-06T15:00:31;6.53;;;3.27;;
18435;SDS011;9346;52.006;4.720;2024-01-06T15:02:58;6.40;;;2.60;;
18435;SDS011;9346;52.006;4.720;2024-01-06T15:05:25;6.80;;;2.83;;
18435;SDS011;9346;52.006;4.720;2024-01-06T15:07:54;4.93;;;2.80;;
18435;SDS011;9346;52.006;4.720;2024-01-06T15:10:20;8.67;;;3.03;;